Terminal Aerodrome Forecast
Issued by NWS

Home | Current Version | Previous Version | Text Only | Print | Product List | Glossary On
Versions: 1 2 3 4 5 6 7 8 9 10 11 12 13 14 15 16 17 18 19 20
000
FTUS43 KDLH 280500 RRA
TAFBRD
TAF
KBRD 280541Z 2806/2906 16007KT 1 1/2SM -SN BR OVC025
      TEMPO 2806/2810 3SM -SN SCT015 OVC025
     FM281000 13007KT 3SM -SN OVC015
     FM281500 13005KT P6SM VCSH OVC015
     FM281900 12005KT P6SM SCT015 BKN035
      TEMPO 2819/2823 1SM -SNPL BKN015
     FM290000 13006KT P6SM SCT025 BKN050
     FM290400 14005KT 6SM -SN BKN015=

USA.gov is the U.S. government's official web portal to all federal, state and local government web resources and services.